createdAt,value
2019-03-24T00:00:37.897Z,478.45
2019-03-24T00:01:41.380Z,474.40
2019-03-24T00:02:37.892Z,466.69
2019-03-24T00:03:37.864Z,466.79
2019-03-24T00:04:37.859Z,469.07
2019-03-24T00:05:37.841Z,464.21
2019-03-24T00:06:37.849Z,466.09
2019-03-24T00:07:37.828Z,468.71
2019-03-24T00:08:37.799Z,475.97
2019-03-24T00:09:37.799Z,475.88
2019-03-24T00:10:37.796Z,475.73
2019-03-24T00:11:37.795Z,471.24
2019-03-24T00:12:37.759Z,470.55
2019-03-24T00:13:37.755Z,481.83
2019-03-24T00:14:37.744Z,478.14
2019-03-24T00:15:37.737Z,482.64
2019-03-24T00:16:37.734Z,483.72
2019-03-24T00:17:37.703Z,483.29
2019-03-24T00:18:37.686Z,484.96
2019-03-24T00:19:37.682Z,480.75
2019-03-24T00:20:37.671Z,481.06
2019-03-24T00:21:37.664Z,481.69
2019-03-24T00:22:37.681Z,484.44
2019-03-24T00:23:37.646Z,483.38
2019-03-24T00:24:37.621Z,479.47
2019-03-24T00:25:37.613Z,486.04
2019-03-24T00:26:37.605Z,488.90
2019-03-24T00:27:37.624Z,489.22
2019-03-24T00:28:37.582Z,493.19
2019-03-24T00:29:37.582Z,491.96
2019-03-24T00:30:37.557Z,493.89
2019-03-24T00:31:37.543Z,494.74
2019-03-24T00:32:37.626Z,495.76
2019-03-24T00:33:37.532Z,500.26
2019-03-24T00:34:37.524Z,502.15
2019-03-24T00:35:37.524Z,502.57
2019-03-24T00:36:37.488Z,504.92
2019-03-24T00:37:37.519Z,507.47
2019-03-24T00:38:37.495Z,505.28
2019-03-24T00:39:37.457Z,505.97
2019-03-24T00:40:37.460Z,508.19
2019-03-24T00:41:37.443Z,507.84
2019-03-24T00:42:37.450Z,504.23
2019-03-24T00:43:37.414Z,510.12
2019-03-24T00:44:37.407Z,510.17
2019-03-24T00:45:37.420Z,511.63
2019-03-24T00:46:37.375Z,529.45
2019-03-24T00:47:37.394Z,528.60
2019-03-24T00:48:37.355Z,530.42
2019-03-24T00:49:37.364Z,532.12
2019-03-24T00:50:37.368Z,530.80
2019-03-24T00:51:37.331Z,528.47
2019-03-24T00:52:37.336Z,529.33
2019-03-24T00:53:37.320Z,528.87
2019-03-24T00:54:37.293Z,527.04
2019-03-24T00:55:37.283Z,528.00
2019-03-24T00:56:37.275Z,505.48
2019-03-24T00:57:37.727Z,526.50
2019-03-24T00:58:37.252Z,528.25
2019-03-24T00:59:37.246Z,529.12
2019-03-24T01:00:37.250Z,529.01
2019-03-24T01:01:37.214Z,528.00
2019-03-24T01:02:37.241Z,526.85
2019-03-24T01:03:37.190Z,505.18
2019-03-24T01:04:37.191Z,527.39
2019-03-24T01:05:37.177Z,504.45
2019-03-24T01:06:37.164Z,504.02
2019-03-24T01:07:37.182Z,503.38
2019-03-24T01:08:37.138Z,523.56
2019-03-24T01:09:37.170Z,502.83
2019-03-24T01:10:37.115Z,525.37
2019-03-24T01:11:37.099Z,503.15
2019-03-24T01:12:37.101Z,527.01
2019-03-24T01:13:37.118Z,526.76
2019-03-24T01:14:37.077Z,525.62
2019-03-24T01:15:47.137Z,527.48
2019-03-24T01:16:38.052Z,524.73
2019-03-24T01:17:37.035Z,505.82
2019-03-24T01:18:37.051Z,502.97
2019-03-24T01:19:37.022Z,508.66
2019-03-24T01:20:37.011Z,503.60
2019-03-24T01:21:36.997Z,506.48
2019-03-24T01:22:36.982Z,502.97
2019-03-24T01:23:36.997Z,504.48
2019-03-24T01:24:36.962Z,505.20
2019-03-24T01:25:36.956Z,503.54
2019-03-24T01:26:36.963Z,501.54
2019-03-24T01:27:36.927Z,501.61
2019-03-24T01:28:36.923Z,504.51
2019-03-24T01:29:36.905Z,501.68
2019-03-24T01:30:36.898Z,501.73
2019-03-24T01:31:36.886Z,499.76
2019-03-24T01:32:36.884Z,502.08
2019-03-24T01:33:36.885Z,499.92
2019-03-24T01:34:36.864Z,499.56
2019-03-24T01:35:36.838Z,498.90
2019-03-24T01:36:36.831Z,498.50
2019-03-24T01:37:36.831Z,501.08
2019-03-24T01:38:36.819Z,501.24
2019-03-24T01:39:36.798Z,501.43
2019-03-24T01:40:36.777Z,523.66
2019-03-24T01:41:36.775Z,503.32
2019-03-24T01:42:36.765Z,523.30
2019-03-24T01:43:36.786Z,502.41
2019-03-24T01:44:36.735Z,523.68
2019-03-24T01:45:36.738Z,500.54
2019-03-24T01:46:36.719Z,522.24
2019-03-24T01:47:36.708Z,522.56
2019-03-24T01:48:36.695Z,522.22
2019-03-24T01:49:36.695Z,500.65
2019-03-24T01:50:36.660Z,498.80
2019-03-24T01:51:36.665Z,498.15
2019-03-24T01:52:36.663Z,520.63
2019-03-24T01:53:36.652Z,496.13
2019-03-24T01:54:36.647Z,497.26
2019-03-24T01:55:36.626Z,498.84
2019-03-24T01:56:36.605Z,495.67
2019-03-24T01:57:36.595Z,497.57
2019-03-24T01:58:36.582Z,498.21
2019-03-24T01:59:36.599Z,496.03
2019-03-24T02:00:36.562Z,516.40
2019-03-24T02:01:36.582Z,514.00
2019-03-24T02:02:36.542Z,514.26
2019-03-24T02:03:36.540Z,488.43
2019-03-24T02:04:36.539Z,509.36
2019-03-24T02:05:36.496Z,512.12
2019-03-24T02:06:38.588Z,514.88
2019-03-24T02:07:36.500Z,490.81
2019-03-24T02:08:36.472Z,489.50
2019-03-24T02:09:36.489Z,492.04
2019-03-24T02:10:36.468Z,515.26
2019-03-24T02:11:36.440Z,508.92
2019-03-24T02:12:36.435Z,506.33
2019-03-24T02:13:36.416Z,475.73
2019-03-24T02:14:36.446Z,498.48
2019-03-24T02:15:36.399Z,496.07
2019-03-24T02:16:36.410Z,497.62
2019-03-24T02:17:36.374Z,472.31
2019-03-24T02:18:36.370Z,470.47
2019-03-24T02:19:36.384Z,471.13
2019-03-24T02:20:36.343Z,472.87
2019-03-24T02:21:36.322Z,493.86
2019-03-24T02:22:36.322Z,471.11
2019-03-24T02:23:36.297Z,492.83
2019-03-24T02:24:36.331Z,472.49
2019-03-24T02:25:36.292Z,471.86
2019-03-24T02:26:36.284Z,472.49
2019-03-24T02:27:36.271Z,472.56
2019-03-24T02:28:36.260Z,471.17
2019-03-24T02:29:36.235Z,474.72
2019-03-24T02:30:36.258Z,479.69
2019-03-24T02:31:36.217Z,480.65
2019-03-24T02:32:36.306Z,484.25
2019-03-24T02:33:36.212Z,489.23
2019-03-24T02:34:36.203Z,489.94
2019-03-24T02:35:36.197Z,492.31
2019-03-24T02:36:36.172Z,492.72
2019-03-24T02:37:36.183Z,497.10
2019-03-24T02:38:36.144Z,499.09
2019-03-24T02:39:36.127Z,500.34
2019-03-24T02:40:36.137Z,497.44
2019-03-24T02:41:36.107Z,497.49
2019-03-24T02:42:36.111Z,497.52
2019-03-24T02:43:36.105Z,497.94
2019-03-24T02:44:36.068Z,501.31
2019-03-24T02:45:36.088Z,498.05
2019-03-24T02:46:36.053Z,493.54
2019-03-24T02:47:36.046Z,491.38
2019-03-24T02:48:36.032Z,488.77
2019-03-24T02:49:36.029Z,475.66
2019-03-24T02:50:36.065Z,472.74
2019-03-24T02:51:36.014Z,474.06
2019-03-24T02:52:36.010Z,471.93
2019-03-24T02:53:36.020Z,468.96
2019-03-24T02:54:35.981Z,470.14
2019-03-24T02:55:35.952Z,468.33
2019-03-24T02:56:35.977Z,469.29
2019-03-24T02:57:35.926Z,471.42
2019-03-24T02:58:35.932Z,466.21
2019-03-24T02:59:35.928Z,469.02
2019-03-24T03:00:35.915Z,469.02
2019-03-24T03:01:35.923Z,471.51
2019-03-24T03:02:35.876Z,473.40
2019-03-24T03:03:35.868Z,472.96
2019-03-24T03:04:35.861Z,472.35
2019-03-24T03:05:35.842Z,472.53
2019-03-24T03:06:35.835Z,476.63
2019-03-24T03:07:35.837Z,475.68
2019-03-24T03:08:35.808Z,476.30
2019-03-24T03:09:35.801Z,476.08
2019-03-24T03:10:35.831Z,476.48
2019-03-24T03:11:35.783Z,479.91
2019-03-24T03:12:35.811Z,479.30
2019-03-24T03:13:35.752Z,482.65
2019-03-24T03:14:35.747Z,488.93
2019-03-24T03:15:35.747Z,492.61
2019-03-24T03:16:38.852Z,492.78
2019-03-24T03:17:35.715Z,495.34
2019-03-24T03:18:35.763Z,493.91
2019-03-24T03:19:35.698Z,492.95
2019-03-24T03:20:35.682Z,491.04
2019-03-24T03:21:35.669Z,493.81
2019-03-24T03:22:35.666Z,492.45
2019-03-24T03:23:35.676Z,487.43
2019-03-24T03:24:35.642Z,485.37
2019-03-24T03:25:35.630Z,482.56
2019-03-24T03:26:35.613Z,479.53
2019-03-24T03:27:35.607Z,478.37
2019-03-24T03:28:35.607Z,477.39
2019-03-24T03:29:35.573Z,476.83
2019-03-24T03:30:35.566Z,476.48
2019-03-24T03:31:35.561Z,476.37
2019-03-24T03:32:35.552Z,476.11
2019-03-24T03:33:35.576Z,474.46
2019-03-24T03:34:35.516Z,477.28
2019-03-24T03:35:35.537Z,472.75
2019-03-24T03:36:35.512Z,479.14
2019-03-24T03:37:35.483Z,482.09
2019-03-24T03:38:35.501Z,484.43
2019-03-24T03:39:35.476Z,486.84
2019-03-24T03:40:35.465Z,489.51
2019-03-24T03:41:35.449Z,489.69
2019-03-24T03:42:35.427Z,488.45
2019-03-24T03:43:35.453Z,489.63
2019-03-24T03:44:35.413Z,490.11
2019-03-24T03:45:35.410Z,492.54
2019-03-24T03:46:35.401Z,489.72
2019-03-24T03:47:35.402Z,491.25
2019-03-24T03:48:35.405Z,493.14
2019-03-24T03:49:35.354Z,492.54
2019-03-24T03:50:35.347Z,488.79
2019-03-24T03:51:35.335Z,489.72
2019-03-24T03:52:35.321Z,490.38
2019-03-24T03:53:35.370Z,490.37
2019-03-24T03:54:35.308Z,491.09
2019-03-24T03:55:35.286Z,493.58
2019-03-24T03:56:35.328Z,491.42
2019-03-24T03:57:35.265Z,489.71
2019-03-24T03:58:35.259Z,490.58
2019-03-24T03:59:35.282Z,490.36
2019-03-24T04:00:35.259Z,490.32
2019-03-24T04:01:35.251Z,489.39
2019-03-24T04:02:35.232Z,491.33
2019-03-24T04:03:35.203Z,489.71
2019-03-24T04:04:35.213Z,489.85
2019-03-24T04:05:35.183Z,488.68
2019-03-24T04:06:35.170Z,491.73
2019-03-24T04:07:35.154Z,492.45
2019-03-24T04:08:35.152Z,492.23
2019-03-24T04:09:35.154Z,491.64
2019-03-24T04:10:35.115Z,492.09
2019-03-24T04:11:35.115Z,494.33
2019-03-24T04:12:35.115Z,489.20
2019-03-24T04:13:35.087Z,483.34
2019-03-24T04:14:35.105Z,484.62
2019-03-24T04:15:35.070Z,488.29
2019-03-24T04:16:35.050Z,489.25
2019-03-24T04:17:35.043Z,491.73
2019-03-24T04:18:35.039Z,487.49
2019-03-24T04:19:35.049Z,485.12
2019-03-24T04:20:35.018Z,480.59
2019-03-24T04:21:34.993Z,477.71
2019-03-24T04:22:34.997Z,478.70
2019-03-24T04:23:34.999Z,478.57
2019-03-24T04:24:34.986Z,478.75
2019-03-24T04:25:34.973Z,480.15
2019-03-24T04:26:34.944Z,482.06
2019-03-24T04:27:34.939Z,482.29
2019-03-24T04:28:34.925Z,484.25
2019-03-24T04:29:34.926Z,487.85
2019-03-24T04:30:34.890Z,487.02
2019-03-24T04:31:34.894Z,482.39
2019-03-24T04:32:34.872Z,484.14
2019-03-24T04:33:34.865Z,478.50
2019-03-24T04:34:34.874Z,476.85
2019-03-24T04:35:34.853Z,476.92
2019-03-24T04:36:34.840Z,478.21
2019-03-24T04:37:34.826Z,475.79
2019-03-24T04:38:34.809Z,479.99
2019-03-24T04:39:34.813Z,484.35
2019-03-24T04:40:34.800Z,483.79
2019-03-24T04:41:34.775Z,483.94
2019-03-24T04:42:34.775Z,490.90
2019-03-24T04:43:34.773Z,491.64
2019-03-24T04:44:34.771Z,493.18
2019-03-24T04:45:34.736Z,492.56
2019-03-24T04:46:34.731Z,493.70
2019-03-24T04:47:34.706Z,492.33
2019-03-24T04:48:34.702Z,492.69
2019-03-24T04:49:34.691Z,493.74
2019-03-24T04:50:34.710Z,490.06
2019-03-24T04:51:34.665Z,492.08
2019-03-24T04:52:34.656Z,492.92
2019-03-24T04:53:34.649Z,488.67
2019-03-24T04:54:34.637Z,490.27
2019-03-24T04:55:34.643Z,484.58
2019-03-24T04:56:34.614Z,482.91
2019-03-24T04:57:34.601Z,483.64
2019-03-24T04:58:34.587Z,481.54
2019-03-24T04:59:34.577Z,480.10
2019-03-24T05:00:34.597Z,481.42
2019-03-24T05:01:34.553Z,482.66
2019-03-24T05:02:34.555Z,481.39
2019-03-24T05:03:34.541Z,481.20
2019-03-24T05:04:34.531Z,477.46
2019-03-24T05:05:34.547Z,477.04
2019-03-24T05:06:34.506Z,476.74
2019-03-24T05:07:34.512Z,478.15
2019-03-24T05:08:34.475Z,477.35
2019-03-24T05:09:34.475Z,475.34
2019-03-24T05:10:34.483Z,475.12
2019-03-24T05:11:34.445Z,475.50
2019-03-24T05:12:34.434Z,472.03
2019-03-24T05:13:34.433Z,473.03
2019-03-24T05:14:34.419Z,474.91
2019-03-24T05:15:34.424Z,472.97
2019-03-24T05:16:34.393Z,471.97
2019-03-24T05:17:34.377Z,471.79
2019-03-24T05:18:34.363Z,473.08
2019-03-24T05:19:34.352Z,474.78
2019-03-24T05:20:34.370Z,474.45
2019-03-24T05:21:34.331Z,474.96
2019-03-24T05:22:34.328Z,473.30
2019-03-24T05:23:34.311Z,470.27
2019-03-24T05:24:34.296Z,472.62
2019-03-24T05:25:34.327Z,472.94
2019-03-24T05:26:34.281Z,474.98
2019-03-24T05:27:34.276Z,475.33
2019-03-24T05:28:34.259Z,478.40
2019-03-24T05:29:34.255Z,481.30
2019-03-24T05:30:34.231Z,484.88
2019-03-24T05:31:34.253Z,484.77
2019-03-24T05:32:34.220Z,486.43
2019-03-24T05:33:34.207Z,486.33
2019-03-24T05:34:34.202Z,481.42
2019-03-24T05:35:34.187Z,473.35
2019-03-24T05:36:34.191Z,469.39
2019-03-24T05:37:34.169Z,472.37
2019-03-24T05:38:34.158Z,474.00
2019-03-24T05:39:34.146Z,477.32
2019-03-24T05:40:34.124Z,475.01
2019-03-24T05:41:34.135Z,476.49
2019-03-24T05:42:34.110Z,477.33
2019-03-24T05:43:34.086Z,477.91
2019-03-24T05:44:34.088Z,476.57
2019-03-24T05:45:34.073Z,473.53
2019-03-24T05:46:34.085Z,473.86
2019-03-24T05:47:37.282Z,473.15
2019-03-24T05:48:34.030Z,472.26
2019-03-24T05:49:34.039Z,471.74
2019-03-24T05:50:34.012Z,472.67
2019-03-24T05:51:34.028Z,473.51
2019-03-24T05:52:33.995Z,476.85
2019-03-24T05:53:33.992Z,504.77
2019-03-24T05:54:33.985Z,484.19
2019-03-24T05:55:33.968Z,508.82
2019-03-24T05:56:33.957Z,488.48
2019-03-24T05:57:33.935Z,512.50
2019-03-24T05:58:33.942Z,489.95
2019-03-24T05:59:33.907Z,512.45
2019-03-24T06:00:33.907Z,492.15
2019-03-24T06:01:33.901Z,515.27
2019-03-24T06:02:33.882Z,492.78
2019-03-24T06:03:33.866Z,516.21
2019-03-24T06:04:33.865Z,491.04
2019-03-24T06:05:33.857Z,514.75
2019-03-24T06:06:33.852Z,513.96
2019-03-24T06:07:33.821Z,514.76
2019-03-24T06:08:35.798Z,507.87
2019-03-24T06:09:33.813Z,502.64
2019-03-24T06:10:33.805Z,498.57
2019-03-24T06:11:33.777Z,498.84
2019-03-24T06:12:33.787Z,503.07
2019-03-24T06:13:33.759Z,504.94
2019-03-24T06:14:33.768Z,484.80
2019-03-24T06:15:33.733Z,513.07
2019-03-24T06:16:33.717Z,489.70
2019-03-24T06:17:33.743Z,513.18
2019-03-24T06:18:33.700Z,493.99
2019-03-24T06:19:33.695Z,514.14
2019-03-24T06:20:33.692Z,492.15
2019-03-24T06:21:33.673Z,492.95
2019-03-24T06:22:33.693Z,492.04
2019-03-24T06:23:33.658Z,493.74
2019-03-24T06:24:33.642Z,491.56
2019-03-24T06:25:35.040Z,494.23
2019-03-24T06:26:33.608Z,495.90
2019-03-24T06:27:33.625Z,495.32
2019-03-24T06:28:33.594Z,495.06
2019-03-24T06:29:33.586Z,496.02
2019-03-24T06:30:33.584Z,496.00
2019-03-24T06:31:33.562Z,496.16
2019-03-24T06:32:33.563Z,494.42
2019-03-24T06:33:33.535Z,495.09
2019-03-24T06:34:33.516Z,495.90
2019-03-24T06:35:33.515Z,518.51
2019-03-24T06:36:33.495Z,493.56
2019-03-24T06:37:33.511Z,516.59
2019-03-24T06:38:33.483Z,495.32
2019-03-24T06:39:33.472Z,517.48
2019-03-24T06:40:33.450Z,516.42
2019-03-24T06:41:33.464Z,517.36
2019-03-24T06:42:33.451Z,495.31
2019-03-24T06:43:33.414Z,517.96
2019-03-24T06:44:33.422Z,493.50
2019-03-24T06:45:33.400Z,516.08
2019-03-24T06:46:33.386Z,494.85
2019-03-24T06:47:33.411Z,515.35
2019-03-24T06:48:33.382Z,495.31
2019-03-24T06:49:33.361Z,518.73
2019-03-24T06:50:33.350Z,496.28
2019-03-24T06:51:33.338Z,519.28
2019-03-24T06:52:33.363Z,493.48
2019-03-24T06:53:33.324Z,494.48
2019-03-24T06:54:33.433Z,495.77
2019-03-24T06:55:33.290Z,516.27
2019-03-24T06:56:33.316Z,495.03
2019-03-24T06:57:33.311Z,497.55
2019-03-24T06:58:33.274Z,496.82
2019-03-24T06:59:33.263Z,496.06
2019-03-24T07:00:33.244Z,491.62
2019-03-24T07:01:33.223Z,495.68
2019-03-24T07:02:33.205Z,493.46
2019-03-24T07:03:33.231Z,494.14
2019-03-24T07:04:33.185Z,492.62
2019-03-24T07:05:33.187Z,516.71
2019-03-24T07:06:34.803Z,498.26
2019-03-24T07:07:33.152Z,516.24
2019-03-24T07:08:33.163Z,495.81
2019-03-24T07:09:33.136Z,515.67
2019-03-24T07:10:33.122Z,495.85
2019-03-24T07:11:33.120Z,517.23
2019-03-24T07:12:33.105Z,494.89
2019-03-24T07:13:33.106Z,518.17
2019-03-24T07:14:33.088Z,495.83
2019-03-24T07:15:33.077Z,517.97
2019-03-24T07:16:33.058Z,496.00
2019-03-24T07:17:33.053Z,515.00
2019-03-24T07:18:33.068Z,495.50
2019-03-24T07:19:33.028Z,495.66
2019-03-24T07:20:33.007Z,495.93
2019-03-24T07:21:33.052Z,519.78
2019-03-24T07:22:32.991Z,495.27
2019-03-24T07:23:32.998Z,518.12
2019-03-24T07:24:32.959Z,496.43
2019-03-24T07:25:32.966Z,521.66
2019-03-24T07:26:32.945Z,496.63
2019-03-24T07:27:32.942Z,518.68
2019-03-24T07:28:32.955Z,495.30
2019-03-24T07:29:32.913Z,516.44
2019-03-24T07:30:32.910Z,494.09
2019-03-24T07:31:32.894Z,496.59
2019-03-24T07:32:32.881Z,495.64
2019-03-24T07:33:32.889Z,518.36
2019-03-24T07:34:32.857Z,496.83
2019-03-24T07:35:32.859Z,520.19
2019-03-24T07:36:32.832Z,517.53
2019-03-24T07:37:32.829Z,519.66
2019-03-24T07:38:32.841Z,516.76
2019-03-24T07:39:32.813Z,520.67
2019-03-24T07:40:32.799Z,521.20
2019-03-24T07:41:32.787Z,519.62
2019-03-24T07:42:32.799Z,497.04
2019-03-24T07:43:32.768Z,518.96
2019-03-24T07:44:32.782Z,496.40
2019-03-24T07:45:32.736Z,518.33
2019-03-24T07:46:32.764Z,498.03
2019-03-24T07:47:32.708Z,518.56
2019-03-24T07:48:32.711Z,495.61
2019-03-24T07:49:32.713Z,519.94
2019-03-24T07:50:32.679Z,497.43
2019-03-24T07:51:32.668Z,522.85
2019-03-24T07:52:32.668Z,499.52
2019-03-24T07:53:32.644Z,523.85
2019-03-24T07:54:32.645Z,500.26
2019-03-24T07:55:32.620Z,523.25
2019-03-24T07:56:32.648Z,499.92
2019-03-24T07:57:32.620Z,520.61
2019-03-24T07:58:32.605Z,500.43
2019-03-24T07:59:32.602Z,519.02
2019-03-24T08:00:32.574Z,498.49
2019-03-24T08:01:32.568Z,498.81
2019-03-24T08:02:32.554Z,498.41
2019-03-24T08:03:32.544Z,519.87
2019-03-24T08:04:32.559Z,497.20
2019-03-24T08:05:32.526Z,520.78
2019-03-24T08:06:32.518Z,521.19
2019-03-24T08:07:32.493Z,521.81
2019-03-24T08:08:32.477Z,497.73
2019-03-24T08:09:32.489Z,521.96
2019-03-24T08:10:32.475Z,519.02
2019-03-24T08:11:32.460Z,520.35
2019-03-24T08:12:32.435Z,518.85
2019-03-24T08:13:32.419Z,519.89
2019-03-24T08:14:32.447Z,498.76
2019-03-24T08:15:32.407Z,520.84
2019-03-24T08:16:32.406Z,501.59
2019-03-24T08:17:32.399Z,521.94
2019-03-24T08:18:32.379Z,497.13
2019-03-24T08:19:32.385Z,519.27
2019-03-24T08:20:32.348Z,499.68
2019-03-24T08:21:32.336Z,521.49
2019-03-24T08:22:32.335Z,500.18
2019-03-24T08:23:32.319Z,520.90
2019-03-24T08:24:32.332Z,496.79
2019-03-24T08:25:32.297Z,521.22
2019-03-24T08:26:32.295Z,499.12
2019-03-24T08:27:32.274Z,522.56
2019-03-24T08:28:32.253Z,496.98
2019-03-24T08:29:32.267Z,519.81
2019-03-24T08:30:32.234Z,499.38
2019-03-24T08:31:32.231Z,521.60
2019-03-24T08:32:32.223Z,502.68
2019-03-24T08:33:32.200Z,521.16
2019-03-24T08:34:32.219Z,499.12
2019-03-24T08:35:32.189Z,522.46
2019-03-24T08:36:32.169Z,521.47
2019-03-24T08:37:32.165Z,521.44
2019-03-24T08:38:32.141Z,519.17
2019-03-24T08:39:32.159Z,520.24
2019-03-24T08:40:32.128Z,521.12
2019-03-24T08:41:32.114Z,519.52
2019-03-24T08:42:32.098Z,497.60
2019-03-24T08:43:32.103Z,517.95
2019-03-24T08:44:32.088Z,499.82
2019-03-24T08:45:32.098Z,519.07
2019-03-24T08:46:32.063Z,498.72
2019-03-24T08:47:32.046Z,518.92
2019-03-24T08:48:40.435Z,497.75
2019-03-24T08:49:33.061Z,518.36
2019-03-24T08:50:32.058Z,496.80
2019-03-24T08:51:32.030Z,522.85
2019-03-24T08:52:31.988Z,501.07
2019-03-24T08:53:31.971Z,523.99
2019-03-24T08:54:31.972Z,504.22
2019-03-24T08:55:31.981Z,524.49
2019-03-24T08:56:31.966Z,501.81
2019-03-24T08:57:32.571Z,525.90
2019-03-24T08:58:31.926Z,505.37
2019-03-24T08:59:31.914Z,526.51
2019-03-24T09:00:31.929Z,505.63
2019-03-24T09:01:31.897Z,526.47
2019-03-24T09:02:31.897Z,504.12
2019-03-24T09:03:32.720Z,522.28
2019-03-24T09:04:31.858Z,500.94
2019-03-24T09:05:33.694Z,524.77
2019-03-24T09:06:31.839Z,524.96
2019-03-24T09:07:31.854Z,522.60
2019-03-24T09:08:31.824Z,499.78
2019-03-24T09:09:31.826Z,524.47
2019-03-24T09:10:31.870Z,522.17
2019-03-24T09:11:31.793Z,524.43
2019-03-24T09:12:31.771Z,501.17
2019-03-24T09:13:31.787Z,523.86
2019-03-24T09:14:31.755Z,501.50
2019-03-24T09:15:31.753Z,522.67
2019-03-24T09:16:31.728Z,501.47
2019-03-24T09:17:31.742Z,524.14
2019-03-24T09:18:31.730Z,500.54
2019-03-24T09:19:31.705Z,500.05
2019-03-24T09:20:41.182Z,499.17
2019-03-24T09:21:32.666Z,522.22
2019-03-24T09:22:31.658Z,501.62
2019-03-24T09:23:31.667Z,522.45
2019-03-24T09:24:31.639Z,502.32
2019-03-24T09:25:31.707Z,522.85
2019-03-24T09:26:31.672Z,500.67
2019-03-24T09:27:31.627Z,522.51
2019-03-24T09:28:31.593Z,498.52
2019-03-24T09:29:31.584Z,498.44
2019-03-24T09:30:31.609Z,496.75
2019-03-24T09:31:31.569Z,495.85
2019-03-24T09:32:31.564Z,499.10
2019-03-24T09:33:31.551Z,498.62
2019-03-24T09:34:31.559Z,494.36
2019-03-24T09:35:31.596Z,519.70
2019-03-24T09:36:31.510Z,501.58
2019-03-24T09:37:31.495Z,521.85
2019-03-24T09:38:31.501Z,499.22
2019-03-24T09:39:31.492Z,522.65
2019-03-24T09:40:31.479Z,500.98
2019-03-24T09:41:31.456Z,521.92
2019-03-24T09:42:31.439Z,499.58
2019-03-24T09:43:31.425Z,517.82
2019-03-24T09:44:31.458Z,500.96
2019-03-24T09:45:31.438Z,526.67
2019-03-24T09:46:31.407Z,503.14
2019-03-24T09:47:31.392Z,527.31
2019-03-24T09:48:31.390Z,504.81
2019-03-24T09:49:31.373Z,505.94
2019-03-24T09:50:31.363Z,503.01
2019-03-24T09:51:31.364Z,502.09
2019-03-24T09:52:31.334Z,502.97
2019-03-24T09:53:31.321Z,502.47
2019-03-24T09:54:31.324Z,504.68
2019-03-24T09:55:31.307Z,507.49
2019-03-24T09:56:31.301Z,509.60
2019-03-24T09:57:31.283Z,514.39
2019-03-24T09:58:31.265Z,504.85
2019-03-24T09:59:31.269Z,503.83
2019-03-24T10:00:31.241Z,502.52
2019-03-24T10:01:31.263Z,501.23
2019-03-24T10:02:31.236Z,504.75
2019-03-24T10:03:31.219Z,498.79
2019-03-24T10:04:31.198Z,496.86
2019-03-24T10:05:31.215Z,508.93
2019-03-24T10:06:31.201Z,502.05
2019-03-24T10:07:31.179Z,496.53
2019-03-24T10:08:31.152Z,499.50
2019-03-24T10:09:31.150Z,499.16
2019-03-24T10:10:31.150Z,503.07
2019-03-24T10:11:31.157Z,496.88
2019-03-24T10:12:31.106Z,508.45
2019-03-24T10:13:31.096Z,501.30
2019-03-24T10:14:31.091Z,501.80
2019-03-24T10:15:31.081Z,499.48
2019-03-24T10:16:31.074Z,503.34
2019-03-24T10:17:31.051Z,502.82
2019-03-24T10:18:31.081Z,503.41
2019-03-24T10:19:31.031Z,502.75
2019-03-24T10:20:31.022Z,499.39
2019-03-24T10:21:31.044Z,500.76
2019-03-24T10:22:31.009Z,501.49
2019-03-24T10:23:30.985Z,501.34
2019-03-24T10:24:30.976Z,500.09
2019-03-24T10:25:30.963Z,501.48
2019-03-24T10:26:30.973Z,500.11
2019-03-24T10:27:30.947Z,502.18
2019-03-24T10:28:30.940Z,502.09
2019-03-24T10:29:30.925Z,504.49
2019-03-24T10:30:30.913Z,507.81
2019-03-24T10:31:30.936Z,502.16
2019-03-24T10:32:30.883Z,505.50
2019-03-24T10:33:30.885Z,506.50
2019-03-24T10:34:30.877Z,505.52
2019-03-24T10:35:30.853Z,500.98
2019-03-24T10:36:30.859Z,505.91
2019-03-24T10:37:30.827Z,508.53
2019-03-24T10:38:30.833Z,507.32
2019-03-24T10:39:32.006Z,503.53
2019-03-24T10:40:30.802Z,501.54
2019-03-24T10:41:30.809Z,504.95
2019-03-24T10:42:30.788Z,510.84
2019-03-24T10:43:30.783Z,502.22
2019-03-24T10:44:30.758Z,516.38
2019-03-24T10:45:30.742Z,497.15
2019-03-24T10:46:30.752Z,505.14
2019-03-24T10:47:30.723Z,498.74
2019-03-24T10:48:33.824Z,508.13
2019-03-24T10:49:30.756Z,509.73
2019-03-24T10:50:30.706Z,509.72
2019-03-24T10:51:30.732Z,505.62
2019-03-24T10:52:30.664Z,500.37
2019-03-24T10:53:30.673Z,504.26
2019-03-24T10:54:30.653Z,498.90
2019-03-24T10:55:30.646Z,500.27
2019-03-24T10:56:30.654Z,503.92
2019-03-24T10:57:30.625Z,502.96
2019-03-24T10:58:30.633Z,507.33
2019-03-24T10:59:30.598Z,502.92
2019-03-24T11:00:30.583Z,500.60
2019-03-24T11:01:30.643Z,509.19
2019-03-24T11:02:30.585Z,502.97
2019-03-24T11:03:30.590Z,506.16
2019-03-24T11:04:30.536Z,500.28
2019-03-24T11:05:30.526Z,512.43
2019-03-24T11:06:30.515Z,507.93
2019-03-24T11:07:30.584Z,505.58
2019-03-24T11:08:30.483Z,502.94
2019-03-24T11:09:30.469Z,502.31
2019-03-24T11:10:30.532Z,496.70
2019-03-24T11:11:30.500Z,487.32
2019-03-24T11:12:30.482Z,492.95
2019-03-24T11:13:30.447Z,497.99
2019-03-24T11:14:30.415Z,500.88
2019-03-24T11:15:30.398Z,500.02
2019-03-24T11:16:30.416Z,506.01
2019-03-24T11:17:30.433Z,503.09
2019-03-24T11:18:30.393Z,503.27
2019-03-24T11:19:35.690Z,501.99
2019-03-24T11:20:31.358Z,502.23
2019-03-24T11:21:30.347Z,499.04
2019-03-24T11:22:30.352Z,495.46
2019-03-24T11:23:30.332Z,491.34
2019-03-24T11:24:30.338Z,496.13
2019-03-24T11:25:30.300Z,496.68
2019-03-24T11:26:30.290Z,498.06
2019-03-24T11:27:31.188Z,522.01
2019-03-24T11:28:30.266Z,498.54
2019-03-24T11:29:30.282Z,501.31
2019-03-24T11:30:30.237Z,520.87
2019-03-24T11:31:30.216Z,530.81
2019-03-24T11:32:30.238Z,501.46
2019-03-24T11:33:30.209Z,523.20
2019-03-24T11:34:30.206Z,506.16
2019-03-24T11:35:30.183Z,527.19
2019-03-24T11:36:30.173Z,505.24
2019-03-24T11:37:30.168Z,502.31
2019-03-24T11:38:30.139Z,506.08
2019-03-24T11:39:30.146Z,506.83
2019-03-24T11:40:30.129Z,510.00
2019-03-24T11:41:30.120Z,504.71
2019-03-24T11:42:30.153Z,489.90
2019-03-24T11:43:30.105Z,515.56
2019-03-24T11:44:30.085Z,492.37
2019-03-24T11:45:30.082Z,510.15
2019-03-24T11:46:30.069Z,505.53
2019-03-24T11:47:30.062Z,529.45
2019-03-24T11:48:30.046Z,499.93
2019-03-24T11:49:30.044Z,525.24
2019-03-24T11:50:30.049Z,507.90
2019-03-24T11:51:30.013Z,528.51
2019-03-24T11:52:30.082Z,511.51
2019-03-24T11:53:29.988Z,534.19
2019-03-24T11:54:29.971Z,509.15
2019-03-24T11:55:29.962Z,533.28
2019-03-24T11:56:29.961Z,508.23
2019-03-24T11:57:29.960Z,527.74
2019-03-24T11:58:29.924Z,524.35
2019-03-24T11:59:29.923Z,533.76
2019-03-24T12:00:29.925Z,532.75
2019-03-24T12:01:38.017Z,533.63
2019-03-24T12:02:30.920Z,526.94
2019-03-24T12:03:29.876Z,527.05
2019-03-24T12:04:29.865Z,503.74
2019-03-24T12:05:29.854Z,525.90
2019-03-24T12:06:29.842Z,525.64
2019-03-24T12:07:29.852Z,523.70
2019-03-24T12:08:29.817Z,524.42
2019-03-24T12:09:29.796Z,531.52
2019-03-24T12:10:29.798Z,501.35
2019-03-24T12:11:29.782Z,528.50
2019-03-24T12:12:29.838Z,509.83
2019-03-24T12:13:29.768Z,525.14
2019-03-24T12:14:29.765Z,507.91
2019-03-24T12:15:29.753Z,526.19
2019-03-24T12:16:29.745Z,502.98
2019-03-24T12:17:29.743Z,532.84
2019-03-24T12:18:29.717Z,501.67
2019-03-24T12:19:29.699Z,510.86
2019-03-24T12:20:29.698Z,507.70
2019-03-24T12:21:29.667Z,520.05
2019-03-24T12:22:29.687Z,505.95
2019-03-24T12:23:29.661Z,524.20
2019-03-24T12:24:29.638Z,508.61
2019-03-24T12:25:29.628Z,500.35
2019-03-24T12:26:29.633Z,503.43
2019-03-24T12:27:29.626Z,529.93
2019-03-24T12:28:29.599Z,526.03